sensor_id;sensor_type;location;lat;lon;timestamp;pressure;altitude;pressure_sealevel;temperature;humidity
76794;BME280;65745;50.278;18.192;2023-09-30T00:01:32;99987.23;;;16.10;67.36
76794;BME280;65745;50.278;18.192;2023-09-30T00:04:04;99984.09;;;16.12;67.00
76794;BME280;65745;50.278;18.192;2023-09-30T00:06:38;99986.52;;;16.16;67.06
76794;BME280;65745;50.278;18.192;2023-09-30T00:09:10;99987.73;;;16.19;66.92
76794;BME280;65745;50.278;18.192;2023-09-30T00:11:44;99986.34;;;16.23;67.02
76794;BME280;65745;50.278;18.192;2023-09-30T00:14:16;99991.89;;;16.27;66.57
76794;BME280;65745;50.278;18.192;2023-09-30T00:16:48;99988.95;;;16.31;66.46
76794;BME280;65745;50.278;18.192;2023-09-30T00:19:21;99988.23;;;16.36;66.27
76794;BME280;65745;50.278;18.192;2023-09-30T00:21:54;99989.44;;;16.40;65.88
76794;BME280;65745;50.278;18.192;2023-09-30T00:24:26;99985.42;;;16.45;65.88
76794;BME280;65745;50.278;18.192;2023-09-30T00:26:58;99980.54;;;16.49;66.12
76794;BME280;65745;50.278;18.192;2023-09-30T00:29:30;99968.38;;;16.52;66.30
76794;BME280;65745;50.278;18.192;2023-09-30T00:32:02;99965.56;;;16.54;65.85
76794;BME280;65745;50.278;18.192;2023-09-30T00:34:35;99958.27;;;16.59;66.78
76794;BME280;65745;50.278;18.192;2023-09-30T00:37:07;99955.33;;;16.60;66.70
76794;BME280;65745;50.278;18.192;2023-09-30T00:39:39;99954.97;;;16.60;67.29
76794;BME280;65745;50.278;18.192;2023-09-30T00:42:11;99949.06;;;16.61;66.67
76794;BME280;65745;50.278;18.192;2023-09-30T00:44:43;99947.13;;;16.64;66.44
76794;BME280;65745;50.278;18.192;2023-09-30T00:47:15;99947.13;;;16.68;66.26
76794;BME280;65745;50.278;18.192;2023-09-30T00:49:48;99952.33;;;16.71;66.30
76794;BME280;65745;50.278;18.192;2023-09-30T00:52:20;99951.98;;;16.73;66.34
76794;BME280;65745;50.278;18.192;2023-09-30T00:54:54;99948.30;;;16.74;66.36
76794;BME280;65745;50.278;18.192;2023-09-30T00:57:26;99948.48;;;16.78;66.61
76794;BME280;65745;50.278;18.192;2023-09-30T01:00:00;99946.22;;;16.78;66.69
76794;BME280;65745;50.278;18.192;2023-09-30T01:02:32;99947.27;;;16.77;66.66
76794;BME280;65745;50.278;18.192;2023-09-30T01:05:06;99951.27;;;16.76;67.30
76794;BME280;65745;50.278;18.192;2023-09-30T01:07:38;99961.52;;;16.76;67.30
76794;BME280;65745;50.278;18.192;2023-09-30T01:10:11;99962.39;;;16.74;67.56
76794;BME280;65745;50.278;18.192;2023-09-30T01:12:43;99957.36;;;16.74;67.49
76794;BME280;65745;50.278;18.192;2023-09-30T01:15:15;99964.14;;;16.75;67.42
76794;BME280;65745;50.278;18.192;2023-09-30T01:17:47;99964.13;;;16.76;67.29
76794;BME280;65745;50.278;18.192;2023-09-30T01:20:20;99962.75;;;16.78;67.21
76794;BME280;65745;50.278;18.192;2023-09-30T01:22:54;99963.59;;;16.79;67.41
76794;BME280;65745;50.278;18.192;2023-09-30T01:25:28;99962.38;;;16.80;67.37
76794;BME280;65745;50.278;18.192;2023-09-30T01:28:00;99962.73;;;16.84;67.09
76794;BME280;65745;50.278;18.192;2023-09-30T01:30:37;99965.86;;;16.83;67.38
76794;BME280;65745;50.278;18.192;2023-09-30T01:33:09;99966.54;;;16.84;67.72
76794;BME280;65745;50.278;18.192;2023-09-30T01:35:41;99965.51;;;16.83;67.55
76794;BME280;65745;50.278;18.192;2023-09-30T01:38:13;99971.59;;;16.82;67.52
76794;BME280;65745;50.278;18.192;2023-09-30T01:40:45;99973.68;;;16.82;68.24
76794;BME280;65745;50.278;18.192;2023-09-30T01:43:17;99976.30;;;16.79;68.70
76794;BME280;65745;50.278;18.192;2023-09-30T01:45:49;99973.01;;;16.76;69.67
76794;BME280;65745;50.278;18.192;2023-09-30T01:48:21;99979.99;;;16.70;69.47
76794;BME280;65745;50.278;18.192;2023-09-30T01:50:55;99986.61;;;16.65;69.18
76794;BME280;65745;50.278;18.192;2023-09-30T01:53:28;99991.15;;;16.60;69.30
76794;BME280;65745;50.278;18.192;2023-09-30T01:56:00;99979.48;;;16.54;69.54
76794;BME280;65745;50.278;18.192;2023-09-30T01:58:33;99985.23;;;16.49;69.81
76794;BME280;65745;50.278;18.192;2023-09-30T02:01:05;99990.13;;;16.45;69.53
76794;BME280;65745;50.278;18.192;2023-09-30T02:03:37;99993.06;;;16.44;69.99
76794;BME280;65745;50.278;18.192;2023-09-30T02:06:09;99987.34;;;16.42;69.52
76794;BME280;65745;50.278;18.192;2023-09-30T02:08:42;99987.00;;;16.38;71.14
76794;BME280;65745;50.278;18.192;2023-09-30T02:11:15;99982.85;;;16.33;72.61
76794;BME280;65745;50.278;18.192;2023-09-30T02:13:48;99983.73;;;16.26;71.78
76794;BME280;65745;50.278;18.192;2023-09-30T02:16:20;99980.95;;;16.25;71.97
76794;BME280;65745;50.278;18.192;2023-09-30T02:18:53;99984.60;;;16.24;71.13
76794;BME280;65745;50.278;18.192;2023-09-30T02:21:25;99986.52;;;16.22;72.54
76794;BME280;65745;50.278;18.192;2023-09-30T02:23:59;99986.70;;;16.18;72.69
76794;BME280;65745;50.278;18.192;2023-09-30T02:26:31;99990.85;;;16.17;72.06
76794;BME280;65745;50.278;18.192;2023-09-30T02:29:03;99995.55;;;16.18;71.91
76794;BME280;65745;50.278;18.192;2023-09-30T02:31:38;99992.08;;;16.18;71.96
76794;BME280;65745;50.278;18.192;2023-09-30T02:34:10;99994.00;;;16.16;73.03
76794;BME280;65745;50.278;18.192;2023-09-30T02:36:43;99993.66;;;16.11;73.27
76794;BME280;65745;50.278;18.192;2023-09-30T02:39:16;99997.83;;;16.08;73.11
76794;BME280;65745;50.278;18.192;2023-09-30T02:41:49;99999.92;;;16.09;73.57
76794;BME280;65745;50.278;18.192;2023-09-30T02:44:23;100001.30;;;16.08;73.54
76794;BME280;65745;50.278;18.192;2023-09-30T02:46:55;99996.08;;;16.06;73.58
76794;BME280;65745;50.278;18.192;2023-09-30T02:49:27;99998.88;;;16.06;73.20
76794;BME280;65745;50.278;18.192;2023-09-30T02:51:59;100001.30;;;16.06;74.43
76794;BME280;65745;50.278;18.192;2023-09-30T02:54:32;100002.17;;;16.05;74.09
76794;BME280;65745;50.278;18.192;2023-09-30T02:57:04;99997.83;;;16.01;75.03
76794;BME280;65745;50.278;18.192;2023-09-30T02:59:38;99997.84;;;15.90;75.97
76794;BME280;65745;50.278;18.192;2023-09-30T03:02:10;99994.02;;;15.88;74.82
76794;BME280;65745;50.278;18.192;2023-09-30T03:04:43;99994.18;;;15.87;74.39
76794;BME280;65745;50.278;18.192;2023-09-30T03:07:15;99994.55;;;15.83;76.61
76794;BME280;65745;50.278;18.192;2023-09-30T03:09:48;99999.39;;;15.77;76.87
76794;BME280;65745;50.278;18.192;2023-09-30T03:12:20;99997.31;;;15.73;79.18
76794;BME280;65745;50.278;18.192;2023-09-30T03:14:52;99991.56;;;15.66;78.93
76794;BME280;65745;50.278;18.192;2023-09-30T03:17:24;99989.67;;;15.66;77.20
76794;BME280;65745;50.278;18.192;2023-09-30T03:19:56;99987.06;;;15.65;78.18
76794;BME280;65745;50.278;18.192;2023-09-30T03:22:28;99982.71;;;15.64;78.05
76794;BME280;65745;50.278;18.192;2023-09-30T03:25:00;99985.49;;;15.61;80.00
76794;BME280;65745;50.278;18.192;2023-09-30T03:27:32;99990.35;;;15.54;81.25
76794;BME280;65745;50.278;18.192;2023-09-30T03:30:06;99991.20;;;15.51;79.54
76794;BME280;65745;50.278;18.192;2023-09-30T03:32:39;99992.04;;;15.47;79.62
76794;BME280;65745;50.278;18.192;2023-09-30T03:35:11;99994.64;;;15.46;78.45
76794;BME280;65745;50.278;18.192;2023-09-30T03:37:48;99991.02;;;15.48;78.60
76794;BME280;65745;50.278;18.192;2023-09-30T03:40:21;99991.70;;;15.48;78.90
76794;BME280;65745;50.278;18.192;2023-09-30T03:42:59;99993.77;;;15.44;80.50
76794;BME280;65745;50.278;18.192;2023-09-30T03:45:31;99990.81;;;15.39;82.07
76794;BME280;65745;50.278;18.192;2023-09-30T03:48:04;99990.11;;;15.33;81.43
76794;BME280;65745;50.278;18.192;2023-09-30T03:50:37;99992.02;;;15.32;81.61
76794;BME280;65745;50.278;18.192;2023-09-30T03:53:09;99993.08;;;15.34;80.60
76794;BME280;65745;50.278;18.192;2023-09-30T03:55:41;99994.45;;;15.36;79.25
76794;BME280;65745;50.278;18.192;2023-09-30T03:58:13;99994.12;;;15.39;79.46
76794;BME280;65745;50.278;18.192;2023-09-30T04:00:46;99993.41;;;15.36;81.51
76794;BME280;65745;50.278;18.192;2023-09-30T04:03:20;99987.67;;;15.30;83.14
76794;BME280;65745;50.278;18.192;2023-09-30T04:05:52;99986.10;;;15.25;82.92
76794;BME280;65745;50.278;18.192;2023-09-30T04:08:24;99993.02;;;15.24;81.90
76794;BME280;65745;50.278;18.192;2023-09-30T04:10:56;100012.13;;;15.27;80.50
76794;BME280;65745;50.278;18.192;2023-09-30T04:13:30;100024.64;;;15.31;80.74
76794;BME280;65745;50.278;18.192;2023-09-30T04:16:02;100031.25;;;15.33;82.05
76794;BME280;65745;50.278;18.192;2023-09-30T04:18:34;100036.09;;;15.31;81.87
76794;BME280;65745;50.278;18.192;2023-09-30T04:21:07;100037.30;;;15.31;81.29
76794;BME280;65745;50.278;18.192;2023-09-30T04:23:39;100039.05;;;15.31;80.33
76794;BME280;65745;50.278;18.192;2023-09-30T04:26:12;100035.73;;;15.27;81.71
76794;BME280;65745;50.278;18.192;2023-09-30T04:28:44;100033.13;;;15.25;80.66
76794;BME280;65745;50.278;18.192;2023-09-30T04:31:16;100034.34;;;15.27;81.68
76794;BME280;65745;50.278;18.192;2023-09-30T04:33:49;100029.83;;;15.24;81.60
76794;BME280;65745;50.278;18.192;2023-09-30T04:36:23;100031.21;;;15.25;81.29
76794;BME280;65745;50.278;18.192;2023-09-30T04:38:55;100029.48;;;15.26;81.00
76794;BME280;65745;50.278;18.192;2023-09-30T04:41:30;100034.88;;;15.26;80.90
76794;BME280;65745;50.278;18.192;2023-09-30T04:44:02;100037.63;;;15.24;81.44
76794;BME280;65745;50.278;18.192;2023-09-30T04:46:34;100045.27;;;15.22;82.91
76794;BME280;65745;50.278;18.192;2023-09-30T04:49:06;100046.98;;;15.20;81.98
76794;BME280;65745;50.278;18.192;2023-09-30T04:51:38;100054.80;;;15.20;81.51
76794;BME280;65745;50.278;18.192;2023-09-30T04:54:11;100057.23;;;15.20;82.14
76794;BME280;65745;50.278;18.192;2023-09-30T04:56:43;100058.10;;;15.18;81.95
76794;BME280;65745;50.278;18.192;2023-09-30T04:59:17;100055.66;;;15.18;82.07
76794;BME280;65745;50.278;18.192;2023-09-30T05:01:49;100055.48;;;15.17;82.68
76794;BME280;65745;50.278;18.192;2023-09-30T05:04:21;100060.02;;;15.20;83.55
76794;BME280;65745;50.278;18.192;2023-09-30T05:06:54;100066.78;;;15.21;83.23
76794;BME280;65745;50.278;18.192;2023-09-30T05:09:26;100072.16;;;15.24;83.13
76794;BME280;65745;50.278;18.192;2023-09-30T05:11:59;100076.35;;;15.26;82.84
76794;BME280;65745;50.278;18.192;2023-09-30T05:14:31;100084.85;;;15.29;83.82
76794;BME280;65745;50.278;18.192;2023-09-30T05:17:03;100091.98;;;15.30;83.15
76794;BME280;65745;50.278;18.192;2023-09-30T05:19:36;100095.11;;;15.35;83.44
76794;BME280;65745;50.278;18.192;2023-09-30T05:22:08;100100.34;;;15.37;83.28
76794;BME280;65745;50.278;18.192;2023-09-30T05:24:40;100108.50;;;15.40;82.06
76794;BME280;65745;50.278;18.192;2023-09-30T05:27:12;100121.37;;;15.44;83.28
76794;BME280;65745;50.278;18.192;2023-09-30T05:29:44;100128.30;;;15.45;83.80
76794;BME280;65745;50.278;18.192;2023-09-30T05:32:17;100130.76;;;15.47;84.27
76794;BME280;65745;50.278;18.192;2023-09-30T05:34:49;100136.67;;;15.48;85.87
76794;BME280;65745;50.278;18.192;2023-09-30T05:37:24;100140.98;;;15.50;84.09
76794;BME280;65745;50.278;18.192;2023-09-30T05:39:57;100145.55;;;15.51;85.72
76794;BME280;65745;50.278;18.192;2023-09-30T05:42:29;100147.83;;;15.52;85.30
76794;BME280;65745;50.278;18.192;2023-09-30T05:45:01;100151.66;;;15.53;85.89
76794;BME280;65745;50.278;18.192;2023-09-30T05:47:35;100151.83;;;15.56;86.04
76794;BME280;65745;50.278;18.192;2023-09-30T05:50:09;100149.59;;;15.59;84.29
76794;BME280;65745;50.278;18.192;2023-09-30T05:52:45;100147.17;;;15.63;83.92
76794;BME280;65745;50.278;18.192;2023-09-30T05:55:17;100153.42;;;15.67;83.35
76794;BME280;65745;50.278;18.192;2023-09-30T05:57:51;100150.32;;;15.73;83.32
76794;BME280;65745;50.278;18.192;2023-09-30T06:00:25;100149.13;;;15.78;83.45
76794;BME280;65745;50.278;18.192;2023-09-30T06:03:02;100153.13;;;15.81;83.77
76794;BME280;65745;50.278;18.192;2023-09-30T06:05:40;100154.89;;;15.85;83.69
76794;BME280;65745;50.278;18.192;2023-09-30T06:08:14;100155.56;;;15.86;84.57
76794;BME280;65745;50.278;18.192;2023-09-30T06:10:46;100156.63;;;15.89;84.20
76794;BME280;65745;50.278;18.192;2023-09-30T06:13:18;100156.44;;;15.90;84.52
76794;BME280;65745;50.278;18.192;2023-09-30T06:15:51;100158.71;;;15.92;83.94
76794;BME280;65745;50.278;18.192;2023-09-30T06:18:24;100158.89;;;15.94;84.20
76794;BME280;65745;50.278;18.192;2023-09-30T06:20:56;100163.94;;;15.95;84.53
76794;BME280;65745;50.278;18.192;2023-09-30T06:23:28;100166.54;;;15.95;86.47
76794;BME280;65745;50.278;18.192;2023-09-30T06:26:02;100169.31;;;15.96;85.56
76794;BME280;65745;50.278;18.192;2023-09-30T06:28:34;100175.93;;;15.98;88.20
76794;BME280;65745;50.278;18.192;2023-09-30T06:31:11;100176.98;;;16.00;88.32
76794;BME280;65745;50.278;18.192;2023-09-30T06:33:43;100180.98;;;16.02;90.20
76794;BME280;65745;50.278;18.192;2023-09-30T06:36:16;100185.16;;;16.04;89.06
76794;BME280;65745;50.278;18.192;2023-09-30T06:38:48;100189.49;;;16.08;89.20
76794;BME280;65745;50.278;18.192;2023-09-30T06:41:21;100192.13;;;16.10;90.53
76794;BME280;65745;50.278;18.192;2023-09-30T06:43:54;100193.34;;;16.11;91.25
76794;BME280;65745;50.278;18.192;2023-09-30T06:46:25;100195.25;;;16.12;90.63
76794;BME280;65745;50.278;18.192;2023-09-30T06:48:58;100197.87;;;16.15;90.22
76794;BME280;65745;50.278;18.192;2023-09-30T06:51:30;100199.61;;;16.18;89.31
76794;BME280;65745;50.278;18.192;2023-09-30T06:54:02;100198.75;;;16.21;89.40
76794;BME280;65745;50.278;18.192;2023-09-30T06:56:37;100199.79;;;16.24;87.90
76794;BME280;65745;50.278;18.192;2023-09-30T06:59:09;100199.80;;;16.27;88.02
76794;BME280;65745;50.278;18.192;2023-09-30T07:01:41;100198.23;;;16.31;89.08
76794;BME280;65745;50.278;18.192;2023-09-30T07:04:12;100200.31;;;16.33;89.41
76794;BME280;65745;50.278;18.192;2023-09-30T07:06:45;100201.36;;;16.38;88.71
76794;BME280;65745;50.278;18.192;2023-09-30T07:09:17;100208.34;;;16.43;88.75
76794;BME280;65745;50.278;18.192;2023-09-30T07:11:50;100212.87;;;16.46;88.94
76794;BME280;65745;50.278;18.192;2023-09-30T07:14:22;100215.82;;;16.49;89.39
76794;BME280;65745;50.278;18.192;2023-09-30T07:16:54;100219.48;;;16.52;89.27
76794;BME280;65745;50.278;18.192;2023-09-30T07:19:26;100222.77;;;16.54;89.06
76794;BME280;65745;50.278;18.192;2023-09-30T07:21:58;100222.80;;;16.56;89.73
76794;BME280;65745;50.278;18.192;2023-09-30T07:24:34;100224.55;;;16.58;90.63
76794;BME280;65745;50.278;18.192;2023-09-30T07:27:07;100227.17;;;16.62;90.54
76794;BME280;65745;50.278;18.192;2023-09-30T07:29:57;100226.81;;;16.64;90.47
76794;BME280;65745;50.278;18.192;2023-09-30T07:32:29;100230.30;;;16.65;91.08
76794;BME280;65745;50.278;18.192;2023-09-30T07:35:02;100226.48;;;16.65;90.74
76794;BME280;65745;50.278;18.192;2023-09-30T07:37:34;100228.21;;;16.65;91.52
76794;BME280;65745;50.278;18.192;2023-09-30T07:40:08;100230.30;;;16.65;91.34
76794;BME280;65745;50.278;18.192;2023-09-30T07:42:41;100233.44;;;16.66;91.39
76794;BME280;65745;50.278;18.192;2023-09-30T07:45:13;100236.91;;;16.65;91.11
76794;BME280;65745;50.278;18.192;2023-09-30T07:47:48;100241.60;;;16.65;92.50
76794;BME280;65745;50.278;18.192;2023-09-30T07:50:20;100241.08;;;16.64;91.69
76794;BME280;65745;50.278;18.192;2023-09-30T07:52:52;100246.30;;;16.65;93.19
76794;BME280;65745;50.278;18.192;2023-09-30T07:55:24;100249.09;;;16.67;92.21
76794;BME280;65745;50.278;18.192;2023-09-30T07:57:57;100250.64;;;16.70;92.22
76794;BME280;65745;50.278;18.192;2023-09-30T08:00:31;100254.49;;;16.73;91.82
76794;BME280;65745;50.278;18.192;2023-09-30T08:03:05;100259.01;;;16.73;92.84
76794;BME280;65745;50.278;18.192;2023-09-30T08:05:37;100261.45;;;16.74;93.08
76794;BME280;65745;50.278;18.192;2023-09-30T08:08:10;100268.40;;;16.76;92.75
76794;BME280;65745;50.278;18.192;2023-09-30T08:10:43;100266.67;;;16.77;92.48
76794;BME280;65745;50.278;18.192;2023-09-30T08:13:15;100267.70;;;16.81;92.47
76794;BME280;65745;50.278;18.192;2023-09-30T08:15:48;100264.94;;;16.83;93.72
76794;BME280;65745;50.278;18.192;2023-09-30T08:18:20;100269.80;;;16.86;92.72
76794;BME280;65745;50.278;18.192;2023-09-30T08:20:52;100268.75;;;16.93;92.94
76794;BME280;65745;50.278;18.192;2023-09-30T08:23:25;100268.06;;;16.98;92.50
76794;BME280;65745;50.278;18.192;2023-09-30T08:25:59;100271.71;;;17.01;94.32
76794;BME280;65745;50.278;18.192;2023-09-30T08:28:31;100272.58;;;17.04;92.65
76794;BME280;65745;50.278;18.192;2023-09-30T08:31:05;100275.90;;;17.09;91.93
76794;BME280;65745;50.278;18.192;2023-09-30T08:33:37;100274.67;;;17.12;92.15
76794;BME280;65745;50.278;18.192;2023-09-30T08:36:11;100273.98;;;17.13;92.01
76794;BME280;65745;50.278;18.192;2023-09-30T08:38:44;100279.20;;;17.14;91.91
76794;BME280;65745;50.278;18.192;2023-09-30T08:41:32;100280.58;;;17.15;92.20
76794;BME280;65745;50.278;18.192;2023-09-30T08:44:06;100282.33;;;17.15;92.05
76794;BME280;65745;50.278;18.192;2023-09-30T08:46:40;100285.99;;;17.14;92.11
76794;BME280;65745;50.278;18.192;2023-09-30T08:49:17;100288.09;;;17.14;92.14
76794;BME280;65745;50.278;18.192;2023-09-30T08:51:52;100291.23;;;17.15;92.69
76794;BME280;65745;50.278;18.192;2023-09-30T08:54:30;100295.73;;;17.17;92.07
76794;BME280;65745;50.278;18.192;2023-09-30T08:57:06;100296.24;;;17.16;92.28
76794;BME280;65745;50.278;18.192;2023-09-30T08:59:42;100297.64;;;17.15;92.28
76794;BME280;65745;50.278;18.192;2023-09-30T09:02:15;100299.91;;;17.12;92.13
76794;BME280;65745;50.278;18.192;2023-09-30T09:04:48;100301.83;;;17.10;92.24
76794;BME280;65745;50.278;18.192;2023-09-30T09:07:22;100300.62;;;17.08;92.22
76794;BME280;65745;50.278;18.192;2023-09-30T09:10:09;100300.09;;;17.10;91.89
76794;BME280;65745;50.278;18.192;2023-09-30T09:12:56;100302.19;;;17.09;92.34
76794;BME280;65745;50.278;18.192;2023-09-30T09:15:30;100311.93;;;17.09;92.27
76794;BME280;65745;50.278;18.192;2023-09-30T09:18:05;100320.10;;;17.07;92.69
76794;BME280;65745;50.278;18.192;2023-09-30T09:20:38;100320.45;;;17.04;92.46
76794;BME280;65745;50.278;18.192;2023-09-30T09:23:15;100323.58;;;16.97;92.47
76794;BME280;65745;50.278;18.192;2023-09-30T09:25:51;100323.22;;;16.89;92.52
76794;BME280;65745;50.278;18.192;2023-09-30T09:28:35;100327.22;;;16.81;92.44
76794;BME280;65745;50.278;18.192;2023-09-30T09:31:25;100328.25;;;16.76;92.58
76794;BME280;65745;50.278;18.192;2023-09-30T09:34:02;100333.28;;;16.69;92.68
76794;BME280;65745;50.278;18.192;2023-09-30T09:36:42;100337.63;;;16.62;92.55
76794;BME280;65745;50.278;18.192;2023-09-30T09:39:16;100341.23;;;16.55;93.08
76794;BME280;65745;50.278;18.192;2023-09-30T09:41:55;100345.73;;;16.52;92.40
76794;BME280;65745;50.278;18.192;2023-09-30T09:44:31;100349.73;;;16.47;92.56
76794;BME280;65745;50.278;18.192;2023-09-30T09:47:06;100350.05;;;16.41;92.50
76794;BME280;65745;50.278;18.192;2023-09-30T09:49:41;100353.52;;;16.37;92.36
76794;BME280;65745;50.278;18.192;2023-09-30T09:52:16;100355.92;;;16.34;92.01
76794;BME280;65745;50.278;18.192;2023-09-30T09:54:50;100360.79;;;16.31;91.74
76794;BME280;65745;50.278;18.192;2023-09-30T09:57:32;100359.91;;;16.29;92.14
76794;BME280;65745;50.278;18.192;2023-09-30T10:00:14;100365.13;;;16.29;92.10
76794;BME280;65745;50.278;18.192;2023-09-30T10:02:51;100365.63;;;16.25;91.82
76794;BME280;65745;50.278;18.192;2023-09-30T10:05:28;100365.25;;;16.19;91.61
76794;BME280;65745;50.278;18.192;2023-09-30T10:08:18;100365.94;;;16.18;91.59
76794;BME280;65745;50.278;18.192;2023-09-30T10:10:58;100368.00;;;16.13;91.64
76794;BME280;65745;50.278;18.192;2023-09-30T10:13:54;100371.65;;;16.12;91.86
76794;BME280;65745;50.278;18.192;2023-09-30T10:16:48;100376.33;;;16.08;92.22
76794;BME280;65745;50.278;18.192;2023-09-30T10:19:33;100378.91;;;16.05;91.62
76794;BME280;65745;50.278;18.192;2023-09-30T10:22:25;100379.77;;;16.03;91.90
76794;BME280;65745;50.278;18.192;2023-09-30T10:25:00;100379.77;;;16.03;91.84
76794;BME280;65745;50.278;18.192;2023-09-30T10:27:41;100384.45;;;16.02;92.01
76794;BME280;65745;50.278;18.192;2023-09-30T10:30:20;100383.23;;;16.01;92.06
76794;BME280;65745;50.278;18.192;2023-09-30T10:33:14;100387.02;;;15.96;91.63
76794;BME280;65745;50.278;18.192;2023-09-30T10:35:51;100387.70;;;15.92;91.74
76794;BME280;65745;50.278;18.192;2023-09-30T10:38:42;100393.58;;;15.89;91.85
76794;BME280;65745;50.278;18.192;2023-09-30T10:41:51;100392.33;;;15.83;91.88
76794;BME280;65745;50.278;18.192;2023-09-30T10:44:36;100391.80;;;15.82;92.09
76794;BME280;65745;50.278;18.192;2023-09-30T10:47:36;100392.70;;;15.84;91.71
76794;BME280;65745;50.278;18.192;2023-09-30T10:53:31;100396.23;;;15.95;92.23
76794;BME280;65745;50.278;18.192;2023-09-30T10:56:04;100399.58;;;16.02;91.34
76794;BME280;65745;50.278;18.192;2023-09-30T10:58:45;100395.61;;;16.06;91.28
76794;BME280;65745;50.278;18.192;2023-09-30T11:01:22;100392.70;;;16.14;91.01
76794;BME280;65745;50.278;18.192;2023-09-30T11:04:03;100394.64;;;16.19;90.90
76794;BME280;65745;50.278;18.192;2023-09-30T11:06:41;100393.80;;;16.28;90.60
76794;BME280;65745;50.278;18.192;2023-09-30T11:09:19;100393.52;;;16.39;90.03
76794;BME280;65745;50.278;18.192;2023-09-30T11:11:53;100397.72;;;16.49;89.78
76794;BME280;65745;50.278;18.192;2023-09-30T11:14:26;100396.17;;;16.51;89.75
76794;BME280;65745;50.278;18.192;2023-09-30T11:17:02;100395.69;;;16.59;89.43
76794;BME280;65745;50.278;18.192;2023-09-30T11:19:46;100400.25;;;16.65;89.53
76794;BME280;65745;50.278;18.192;2023-09-30T11:22:22;100397.65;;;16.69;89.44
76794;BME280;65745;50.278;18.192;2023-09-30T11:24:56;100399.23;;;16.76;89.25
76794;BME280;65745;50.278;18.192;2023-09-30T11:27:28;100398.39;;;16.83;88.81
76794;BME280;65745;50.278;18.192;2023-09-30T11:30:04;100392.82;;;16.85;88.57
76794;BME280;65745;50.278;18.192;2023-09-30T11:32:39;100395.58;;;16.78;88.22
76794;BME280;65745;50.278;18.192;2023-09-30T11:35:24;100393.30;;;16.69;88.29
76794;BME280;65745;50.278;18.192;2023-09-30T11:37:56;100391.33;;;16.58;88.45
76794;BME280;65745;50.278;18.192;2023-09-30T11:40:30;100394.09;;;16.54;88.17
76794;BME280;65745;50.278;18.192;2023-09-30T11:43:11;100397.38;;;16.51;88.16
76794;BME280;65745;50.278;18.192;2023-09-30T11:45:45;100402.79;;;16.52;87.94
76794;BME280;65745;50.278;18.192;2023-09-30T11:48:21;100406.16;;;16.65;87.54
76794;BME280;65745;50.278;18.192;2023-09-30T11:50:53;100407.23;;;16.75;87.14
76794;BME280;65745;50.278;18.192;2023-09-30T11:53:27;100400.13;;;16.88;86.70
76794;BME280;65745;50.278;18.192;2023-09-30T11:56:02;100403.29;;;17.02;86.28
76794;BME280;65745;50.278;18.192;2023-09-30T11:58:40;100401.58;;;17.20;84.94
76794;BME280;65745;50.278;18.192;2023-09-30T12:01:16;100396.55;;;17.40;84.54
76794;BME280;65745;50.278;18.192;2023-09-30T12:03:51;100394.13;;;17.66;84.07
76794;BME280;65745;50.278;18.192;2023-09-30T12:06:29;100392.68;;;17.98;83.13
76794;BME280;65745;50.278;18.192;2023-09-30T12:09:03;100400.10;;;18.23;82.08
76794;BME280;65745;50.278;18.192;2023-09-30T12:11:46;100395.89;;;18.34;80.88
76794;BME280;65745;50.278;18.192;2023-09-30T12:14:19;100397.45;;;18.35;80.06
76794;BME280;65745;50.278;18.192;2023-09-30T12:16:52;100398.05;;;18.16;79.57
76794;BME280;65745;50.278;18.192;2023-09-30T12:19:25;100399.13;;;18.02;79.03
76794;BME280;65745;50.278;18.192;2023-09-30T12:22:01;100397.74;;;17.90;79.22
76794;BME280;65745;50.278;18.192;2023-09-30T12:24:36;100397.40;;;17.94;79.17
76794;BME280;65745;50.278;18.192;2023-09-30T12:27:11;100394.08;;;17.97;79.04
76794;BME280;65745;50.278;18.192;2023-09-30T12:29:46;100400.86;;;18.07;79.15
76794;BME280;65745;50.278;18.192;2023-09-30T12:32:22;100402.90;;;18.24;78.76
76794;BME280;65745;50.278;18.192;2023-09-30T12:34:56;100405.64;;;18.36;77.09
76794;BME280;65745;50.278;18.192;2023-09-30T12:37:33;100404.60;;;18.38;75.85
76794;BME280;65745;50.278;18.192;2023-09-30T12:40:08;100405.98;;;18.41;75.70
76794;BME280;65745;50.278;18.192;2023-09-30T12:42:46;100409.46;;;18.45;75.18
76794;BME280;65745;50.278;18.192;2023-09-30T12:45:22;100411.49;;;18.64;74.90
76794;BME280;65745;50.278;18.192;2023-09-30T12:47:57;100415.76;;;18.83;74.59
76794;BME280;65745;50.278;18.192;2023-09-30T12:50:34;100414.67;;;18.91;74.41
76794;BME280;65745;50.278;18.192;2023-09-30T12:53:08;100417.40;;;19.02;73.47
76794;BME280;65745;50.278;18.192;2023-09-30T12:55:42;100412.40;;;18.90;70.56
76794;BME280;65745;50.278;18.192;2023-09-30T12:58:15;100413.13;;;19.14;72.05
76794;BME280;65745;50.278;18.192;2023-09-30T13:00:51;100405.65;;;19.32;71.20
76794;BME280;65745;50.278;18.192;2023-09-30T13:03:44;100406.71;;;19.75;68.93
76794;BME280;65745;50.278;18.192;2023-09-30T13:06:17;100405.50;;;20.55;66.46
76794;BME280;65745;50.278;18.192;2023-09-30T13:08:51;100398.30;;;21.22;64.27
76794;BME280;65745;50.278;18.192;2023-09-30T13:11:26;100393.10;;;21.51;63.55
76794;BME280;65745;50.278;18.192;2023-09-30T13:14:03;100400.31;;;21.90;62.96
76794;BME280;65745;50.278;18.192;2023-09-30T13:16:45;100406.66;;;22.26;61.05
76794;BME280;65745;50.278;18.192;2023-09-30T13:19:20;100408.05;;;22.53;59.06
76794;BME280;65745;50.278;18.192;2023-09-30T13:21:58;100402.40;;;23.47;57.34
76794;BME280;65745;50.278;18.192;2023-09-30T13:24:48;100402.11;;;23.38;56.37